createdAt,value
2016-08-25T00:00:58.604Z,22.3
2016-08-25T00:01:57.217Z,22.28
2016-08-25T00:02:57.330Z,22.22
2016-08-25T00:03:58.683Z,22.37
2016-08-25T00:04:58.010Z,22.26
2016-08-25T00:05:58.034Z,22.31
2016-08-25T00:06:57.355Z,22.34
2016-08-25T00:07:58.804Z,22.26
2016-08-25T00:08:58.137Z,22.16
2016-08-25T00:09:58.843Z,22.28
2016-08-25T00:10:58.878Z,22.14
2016-08-25T00:11:57.476Z,22.06
2016-08-25T00:12:58.210Z,22.12
2016-08-25T00:13:58.954Z,22.07
2016-08-25T00:14:57.560Z,22.08
2016-08-25T00:15:58.304Z,22.1
2016-08-25T00:16:59.126Z,22.04
2016-08-25T00:17:59.055Z,22.01
2016-08-25T00:18:58.364Z,22.07
2016-08-25T00:19:58.405Z,22.03
2016-08-25T00:20:58.421Z,21.96
2016-08-25T00:21:58.483Z,21.89
2016-08-25T00:22:58.464Z,21.85
2016-08-25T00:23:57.784Z,21.84
2016-08-25T00:24:57.815Z,21.89
2016-08-25T00:25:59.257Z,21.91
2016-08-25T00:26:58.563Z,21.84
2016-08-25T00:27:58.649Z,21.85
2016-08-25T00:28:58.632Z,21.75
2016-08-25T00:29:59.364Z,21.83
2016-08-25T00:30:57.985Z,21.77
2016-08-25T00:31:58.692Z,21.77
2016-08-25T00:32:59.444Z,21.62
2016-08-25T00:33:59.448Z,21.7
2016-08-25T00:34:58.781Z,21.72
2016-08-25T00:35:58.120Z,21.7
2016-08-25T00:36:58.125Z,21.65
2016-08-25T00:37:59.554Z,21.63
2016-08-25T00:38:58.165Z,21.63
2016-08-25T00:39:59.595Z,21.56
2016-08-25T00:40:58.963Z,21.54
2016-08-25T00:41:58.948Z,21.54
2016-08-25T00:42:58.265Z,21.47
2016-08-25T00:43:58.305Z,21.5
2016-08-25T00:44:59.014Z,21.44
2016-08-25T00:45:59.763Z,21.48
2016-08-25T00:46:59.787Z,21.44
2016-08-25T00:47:59.805Z,21.53
2016-08-25T00:48:59.123Z,21.48
2016-08-25T00:49:59.154Z,21.41
2016-08-25T00:50:59.194Z,21.25
2016-08-25T00:51:59.197Z,21.37
2016-08-25T00:52:59.317Z,21.35
2016-08-25T00:53:58.554Z,21.28
2016-08-25T00:54:58.572Z,21.26
2016-08-25T00:55:58.615Z,21.25
2016-08-25T00:57:00.084Z,21.17
2016-08-25T00:57:59.353Z,21.2
2016-08-25T00:59:00.075Z,21.19
2016-08-25T00:59:59.415Z,21.19
2016-08-25T01:00:59.425Z,21.15
2016-08-25T01:01:59.588Z,21.13
2016-08-25T01:02:59.471Z,21.13
2016-08-25T01:03:59.509Z,21.1
2016-08-25T01:05:00.233Z,21.11
2016-08-25T01:05:58.865Z,21.01
2016-08-25T01:06:59.575Z,20.93
2016-08-25T01:08:00.326Z,20.95
2016-08-25T01:08:59.623Z,20.85
2016-08-25T01:09:59.663Z,20.88
2016-08-25T01:10:59.678Z,20.88
2016-08-25T01:11:59.713Z,20.83
2016-08-25T01:12:59.714Z,20.82
2016-08-25T01:13:59.737Z,20.82
2016-08-25T01:15:00.490Z,20.9
2016-08-25T01:15:59.804Z,20.77
2016-08-25T01:16:59.894Z,20.85
2016-08-25T01:17:59.224Z,20.82
2016-08-25T01:18:59.944Z,20.8
2016-08-25T01:19:59.894Z,20.75
2016-08-25T01:20:59.218Z,20.74
2016-08-25T01:22:00.651Z,20.77
2016-08-25T01:23:00.675Z,20.77
2016-08-25T01:23:59.286Z,20.75
2016-08-25T01:25:00.014Z,20.68
2016-08-25T01:26:00.045Z,20.74
2016-08-25T01:27:00.124Z,20.78
2016-08-25T01:28:00.153Z,20.83
2016-08-25T01:29:00.824Z,20.82
2016-08-25T01:30:00.970Z,20.75
2016-08-25T01:30:59.475Z,20.77
2016-08-25T01:32:00.201Z,20.71
2016-08-25T01:33:00.233Z,20.67
2016-08-25T01:33:59.535Z,20.67
2016-08-25T01:35:00.974Z,20.59
2016-08-25T01:35:59.584Z,20.58
2016-08-25T01:37:00.323Z,20.63
2016-08-25T01:37:59.636Z,20.59
2016-08-25T01:39:00.366Z,20.58
2016-08-25T01:40:01.105Z,20.53
2016-08-25T01:40:59.697Z,20.49
2016-08-25T01:42:00.446Z,20.55
2016-08-25T01:43:01.224Z,20.56
2016-08-25T01:44:01.215Z,20.52
2016-08-25T01:44:59.803Z,20.53
2016-08-25T01:46:00.543Z,20.5
2016-08-25T01:46:59.857Z,20.46
2016-08-25T01:47:59.890Z,20.53
2016-08-25T01:49:01.331Z,20.4
2016-08-25T01:50:00.654Z,20.4
2016-08-25T01:51:00.661Z,20.42
2016-08-25T01:52:00.758Z,20.44
2016-08-25T01:53:01.423Z,20.4
2016-08-25T01:54:00.746Z,20.29
2016-08-25T01:55:00.135Z,20.22
2016-08-25T01:56:00.769Z,20.29
2016-08-25T01:57:01.515Z,20.3
2016-08-25T01:58:01.545Z,20.32
2016-08-25T01:59:01.585Z,20.32
2016-08-25T02:00:01.599Z,20.21
2016-08-25T02:01:00.920Z,20.29
2016-08-25T02:02:01.635Z,20.26
2016-08-25T02:03:01.081Z,20.18
2016-08-25T02:04:01.694Z,20.08
2016-08-25T02:05:00.306Z,20.11
2016-08-25T02:06:00.328Z,20.08
2016-08-25T02:07:00.344Z,20.08
2016-08-25T02:08:01.080Z,20.1
2016-08-25T02:09:01.106Z,20.08
2016-08-25T02:10:00.504Z,19.94
2016-08-25T02:11:00.443Z,20.04
2016-08-25T02:12:01.882Z,19.96
2016-08-25T02:13:01.905Z,19.96
2016-08-25T02:14:01.237Z,19.99
2016-08-25T02:15:01.243Z,19.93
2016-08-25T02:16:01.267Z,19.89
2016-08-25T02:17:00.680Z,19.84
2016-08-25T02:18:02.024Z,19.84
2016-08-25T02:19:00.637Z,19.79
2016-08-25T02:20:01.385Z,19.84
2016-08-25T02:21:02.111Z,19.87
2016-08-25T02:22:00.714Z,19.9
2016-08-25T02:23:01.439Z,19.94
2016-08-25T02:24:02.184Z,19.84
2016-08-25T02:25:01.538Z,19.9
2016-08-25T02:26:01.521Z,19.81
2016-08-25T02:27:01.697Z,19.84
2016-08-25T02:28:02.279Z,19.87
2016-08-25T02:29:02.280Z,19.82
2016-08-25T02:30:01.626Z,19.9
2016-08-25T02:31:01.649Z,19.81
2016-08-25T02:32:02.371Z,19.84
2016-08-25T02:33:01.675Z,19.87
2016-08-25T02:34:02.410Z,19.75
2016-08-25T02:35:02.446Z,19.78
2016-08-25T02:36:02.476Z,19.81
2016-08-25T02:37:01.785Z,19.81
2016-08-25T02:38:02.589Z,19.81
2016-08-25T02:39:01.838Z,19.75
2016-08-25T02:40:01.234Z,19.71
2016-08-25T02:41:01.185Z,19.72
2016-08-25T02:42:02.622Z,19.66
2016-08-25T02:43:01.937Z,19.72
2016-08-25T02:44:02.675Z,19.71
2016-08-25T02:45:01.995Z,19.62
2016-08-25T02:46:02.004Z,19.67
2016-08-25T02:47:02.734Z,19.63
2016-08-25T02:48:02.149Z,19.59
2016-08-25T02:49:02.074Z,19.56
2016-08-25T02:50:02.103Z,19.62
2016-08-25T02:51:01.417Z,19.57
2016-08-25T02:52:02.237Z,19.55
2016-08-25T02:53:01.476Z,19.57
2016-08-25T02:54:02.204Z,19.44
2016-08-25T02:55:03.046Z,19.47
2016-08-25T02:56:02.245Z,19.38
2016-08-25T02:57:02.281Z,19.39
2016-08-25T02:58:01.594Z,19.38
2016-08-25T02:59:02.322Z,19.42
2016-08-25T03:00:02.425Z,19.41
2016-08-25T03:01:02.374Z,19.39
2016-08-25T03:02:03.104Z,19.37
2016-08-25T03:03:02.419Z,19.35
2016-08-25T03:04:01.826Z,19.38
2016-08-25T03:05:03.164Z,19.35
2016-08-25T03:06:02.483Z,19.34
2016-08-25T03:07:03.224Z,19.35
2016-08-25T03:08:03.265Z,19.37
2016-08-25T03:09:02.605Z,19.32
2016-08-25T03:10:02.596Z,19.27
2016-08-25T03:11:01.916Z,19.23
2016-08-25T03:12:03.344Z,19.22
2016-08-25T03:13:03.401Z,19.15
2016-08-25T03:14:03.382Z,19.2
2016-08-25T03:15:02.006Z,19.15
2016-08-25T03:16:02.023Z,19.08
2016-08-25T03:17:02.243Z,19.05
2016-08-25T03:18:02.073Z,18.97
2016-08-25T03:19:02.801Z,18.98
2016-08-25T03:20:02.930Z,18.98
2016-08-25T03:21:02.848Z,19.04
2016-08-25T03:22:03.583Z,18.98
2016-08-25T03:23:02.903Z,18.92
2016-08-25T03:24:02.225Z,18.97
2016-08-25T03:25:02.953Z,19
2016-08-25T03:26:03.695Z,18.98
2016-08-25T03:27:02.424Z,19
2016-08-25T03:28:03.748Z,19.01
2016-08-25T03:29:02.403Z,19
2016-08-25T03:30:03.092Z,18.98
2016-08-25T03:31:03.120Z,18.98
2016-08-25T03:32:03.832Z,18.96
2016-08-25T03:33:03.155Z,18.98
2016-08-25T03:34:03.894Z,18.92
2016-08-25T03:35:02.505Z,18.92
2016-08-25T03:36:03.236Z,18.89
2016-08-25T03:37:03.963Z,18.89
2016-08-25T03:38:02.586Z,18.85
2016-08-25T03:39:03.300Z,18.82
2016-08-25T03:40:03.335Z,18.73
2016-08-25T03:41:02.637Z,18.83
2016-08-25T03:42:04.082Z,18.81
2016-08-25T03:43:03.423Z,18.71
2016-08-25T03:44:03.484Z,18.73
2016-08-25T03:45:03.464Z,18.81
2016-08-25T03:46:04.189Z,18.78
2016-08-25T03:47:03.504Z,18.82
2016-08-25T03:48:04.240Z,18.78
2016-08-25T03:49:02.850Z,18.81
2016-08-25T03:50:03.560Z,18.73
2016-08-25T03:51:03.594Z,18.73
2016-08-25T03:52:03.615Z,18.66
2016-08-25T03:53:04.322Z,18.58
2016-08-25T03:54:04.373Z,18.73
2016-08-25T03:55:03.715Z,18.64
2016-08-25T03:56:03.714Z,18.61
2016-08-25T03:57:04.522Z,18.57
2016-08-25T03:58:03.753Z,18.57
2016-08-25T03:59:03.792Z,18.58
2016-08-25T04:00:04.517Z,18.51
2016-08-25T04:01:03.128Z,18.57
2016-08-25T04:02:03.164Z,18.55
2016-08-25T04:03:03.872Z,18.61
2016-08-25T04:04:03.198Z,18.61
2016-08-25T04:05:03.932Z,18.58
2016-08-25T04:06:04.662Z,18.61
2016-08-25T04:07:03.282Z,18.57
2016-08-25T04:08:03.344Z,18.55
2016-08-25T04:09:04.733Z,18.55
2016-08-25T04:10:03.354Z,18.55
2016-08-25T04:11:04.774Z,18.58
2016-08-25T04:12:04.835Z,18.58
2016-08-25T04:13:04.124Z,18.66
2016-08-25T04:14:05.060Z,18.64
2016-08-25T04:15:04.884Z,18.73
2016-08-25T04:16:03.492Z,18.66
2016-08-25T04:17:03.524Z,18.61
2016-08-25T04:18:05.152Z,18.61
2016-08-25T04:19:05.283Z,18.58
2016-08-25T04:20:04.432Z,18.66
2016-08-25T04:21:04.660Z,18.66
2016-08-25T04:22:05.153Z,18.64
2016-08-25T04:23:04.374Z,18.58
2016-08-25T04:24:05.193Z,18.61
2016-08-25T04:25:04.555Z,18.63
2016-08-25T04:26:04.440Z,18.6
2016-08-25T04:27:05.226Z,18.63
2016-08-25T04:28:05.198Z,18.58
2016-08-25T04:29:04.523Z,18.6
2016-08-25T04:30:03.836Z,18.55
2016-08-25T04:31:03.853Z,18.57
2016-08-25T04:32:05.829Z,18.57
2016-08-25T04:33:04.608Z,18.58
2016-08-25T04:34:04.716Z,18.61
2016-08-25T04:35:05.385Z,18.66
2016-08-25T04:36:04.728Z,18.61
2016-08-25T04:37:04.701Z,18.63
2016-08-25T04:38:04.719Z,18.68
2016-08-25T04:39:05.474Z,18.73
2016-08-25T04:40:04.764Z,18.7
2016-08-25T04:41:05.535Z,18.66
2016-08-25T04:42:04.113Z,18.76
2016-08-25T04:43:05.582Z,18.68
2016-08-25T04:44:04.872Z,18.74
2016-08-25T04:45:04.944Z,18.73
2016-08-25T04:46:05.625Z,18.78
2016-08-25T04:47:04.945Z,18.73
2016-08-25T04:48:04.989Z,18.81
2016-08-25T04:49:04.992Z,18.89
2016-08-25T04:50:05.022Z,18.91
2016-08-25T04:51:05.045Z,18.92
2016-08-25T04:52:05.142Z,18.92
2016-08-25T04:53:05.098Z,18.92
2016-08-25T04:54:05.173Z,18.94
2016-08-25T04:55:05.141Z,18.96
2016-08-25T04:56:05.954Z,19
2016-08-25T04:57:05.894Z,18.91
2016-08-25T04:58:04.714Z,18.94
2016-08-25T04:59:05.941Z,19
2016-08-25T05:00:05.255Z,18.96
2016-08-25T05:01:05.608Z,19.09
2016-08-25T05:02:04.699Z,19.09
2016-08-25T05:03:04.863Z,19.22
2016-08-25T05:04:04.717Z,19.11
2016-08-25T05:05:06.177Z,19.22
2016-08-25T05:06:04.702Z,19.29
2016-08-25T05:07:04.973Z,19.32
2016-08-25T05:08:05.462Z,19.29
2016-08-25T05:09:04.781Z,19.38
2016-08-25T05:10:05.611Z,19.38
2016-08-25T05:11:05.534Z,19.38
2016-08-25T05:12:06.282Z,19.39
2016-08-25T05:13:05.572Z,19.48
2016-08-25T05:14:05.628Z,19.47
2016-08-25T05:15:06.342Z,19.42
2016-08-25T05:16:04.952Z,19.45
2016-08-25T05:17:05.684Z,19.55
2016-08-25T05:18:05.689Z,19.59
2016-08-25T05:19:05.724Z,19.66
2016-08-25T05:20:05.748Z,19.64
2016-08-25T05:21:05.172Z,19.59
2016-08-25T05:22:05.803Z,19.71
2016-08-25T05:23:06.518Z,19.71
2016-08-25T05:24:05.857Z,19.72
2016-08-25T05:25:06.585Z,19.81
2016-08-25T05:26:05.899Z,19.78
2016-08-25T05:27:06.644Z,19.72
2016-08-25T05:28:06.665Z,19.81
2016-08-25T05:29:06.937Z,19.85
2016-08-25T05:30:06.012Z,19.87
2016-08-25T05:31:06.025Z,19.93
2016-08-25T05:32:06.735Z,19.97
2016-08-25T05:33:06.773Z,20.08
2016-08-25T05:34:06.091Z,20.1
2016-08-25T05:35:06.133Z,20.21
2016-08-25T05:36:06.154Z,20.68
2016-08-25T05:37:06.158Z,21.38
2016-08-25T05:38:06.206Z,22.55
2016-08-25T05:39:06.925Z,23.88
2016-08-25T05:40:06.236Z,25.14
2016-08-25T05:41:06.963Z,26.11
2016-08-25T05:42:07.003Z,27.11
2016-08-25T05:43:07.035Z,27.79
2016-08-25T05:44:07.058Z,28.1
2016-08-25T05:45:06.652Z,28.52
2016-08-25T05:46:06.403Z,29.03
2016-08-25T05:47:06.435Z,29.32
2016-08-25T05:48:06.455Z,29.86
2016-08-25T05:49:07.247Z,30.39
2016-08-25T05:50:07.229Z,30.78
2016-08-25T05:51:06.525Z,31.08
2016-08-25T05:52:06.563Z,31.22
2016-08-25T05:53:07.336Z,31.48
2016-08-25T05:54:06.615Z,31.87
2016-08-25T05:55:07.373Z,32.41
2016-08-25T05:56:07.383Z,32.76
2016-08-25T05:57:06.005Z,33.12
2016-08-25T05:58:06.733Z,33.15
2016-08-25T05:59:06.762Z,33.35
2016-08-25T06:00:06.804Z,33.55
2016-08-25T06:01:06.824Z,33.65
2016-08-25T06:02:06.871Z,34.03
2016-08-25T06:03:06.292Z,34.32
2016-08-25T06:04:06.893Z,34.5
2016-08-25T06:05:07.633Z,34.85
2016-08-25T06:06:07.688Z,34.78
2016-08-25T06:07:07.087Z,34.96
2016-08-25T06:08:07.725Z,34.55
2016-08-25T06:09:07.764Z,34.58
2016-08-25T06:10:07.800Z,34.85
2016-08-25T06:11:07.130Z,35.13
2016-08-25T06:12:07.864Z,35.45
2016-08-25T06:13:06.465Z,35.52
2016-08-25T06:14:07.238Z,35.53
2016-08-25T06:15:07.964Z,35.79
2016-08-25T06:16:06.684Z,35.96
2016-08-25T06:17:07.295Z,36.09
2016-08-25T06:18:07.444Z,36.08
2016-08-25T06:19:07.373Z,35.97
2016-08-25T06:20:07.424Z,36.17
2016-08-25T06:21:07.438Z,36.32
2016-08-25T06:22:08.223Z,36.57
2016-08-25T06:23:08.224Z,36.51
2016-08-25T06:24:07.545Z,36.5
2016-08-25T06:25:08.293Z,36.67
2016-08-25T06:26:08.311Z,36.84
2016-08-25T06:27:07.786Z,36.73
2016-08-25T06:28:08.383Z,36.73
2016-08-25T06:29:07.753Z,37.15
2016-08-25T06:30:07.744Z,37.38
2016-08-25T06:31:07.769Z,37.33
2016-08-25T06:32:07.833Z,37.53
2016-08-25T06:33:07.833Z,37.11
2016-08-25T06:34:08.584Z,37.09
2016-08-25T06:35:08.064Z,37.01
2016-08-25T06:36:07.936Z,37.44
2016-08-25T06:37:08.074Z,37.82
2016-08-25T06:38:08.971Z,38.1
2016-08-25T06:39:08.088Z,38.28
2016-08-25T06:40:08.975Z,38.35
2016-08-25T06:41:07.394Z,38.48
2016-08-25T06:42:08.232Z,38.34
2016-08-25T06:43:08.175Z,38.57
2016-08-25T06:44:08.203Z,38.36
2016-08-25T06:45:07.541Z,38.47
2016-08-25T06:46:08.988Z,39.01
2016-08-25T06:47:09.099Z,39.27
2016-08-25T06:48:08.344Z,39.1
2016-08-25T06:49:08.384Z,39.05
2016-08-25T06:50:09.137Z,38.87
2016-08-25T06:51:09.174Z,39.1
2016-08-25T06:52:08.473Z,38.91
2016-08-25T06:53:08.524Z,39.04
2016-08-25T06:54:09.269Z,39.25
2016-08-25T06:55:09.324Z,39.42
2016-08-25T06:56:09.338Z,39.54
2016-08-25T06:57:07.960Z,39.79
2016-08-25T06:58:08.703Z,39.78
2016-08-25T06:59:09.455Z,39.73
2016-08-25T07:00:09.473Z,39.51
2016-08-25T07:01:09.492Z,39.51
2016-08-25T07:02:08.862Z,39.68
2016-08-25T07:03:08.846Z,39.61
2016-08-25T07:04:09.614Z,39.71
2016-08-25T07:05:09.668Z,39.94
2016-08-25T07:06:08.973Z,40.02
2016-08-25T07:07:09.820Z,40.2
2016-08-25T07:08:08.352Z,40.19
2016-08-25T07:09:09.080Z,40
2016-08-25T07:10:09.822Z,39.49
2016-08-25T07:11:09.162Z,39.51
2016-08-25T07:12:09.892Z,39.85
2016-08-25T07:13:09.929Z,39.94
2016-08-25T07:14:10.025Z,39.82
2016-08-25T07:15:10.014Z,39.8
2016-08-25T07:16:09.325Z,39.73
2016-08-25T07:17:08.789Z,39.97
2016-08-25T07:18:10.301Z,40.36
2016-08-25T07:19:10.161Z,40.66
2016-08-25T07:20:09.475Z,40.85
2016-08-25T07:21:10.232Z,41.22
2016-08-25T07:22:10.242Z,41.6
2016-08-25T07:23:09.573Z,41.68
2016-08-25T07:24:09.624Z,41.61
2016-08-25T07:25:09.652Z,41.32
2016-08-25T07:26:10.391Z,41.34
2016-08-25T07:27:10.421Z,41.22
2016-08-25T07:28:09.772Z,40.66
2016-08-25T07:29:09.790Z,40.73
2016-08-25T07:30:09.183Z,40.96
2016-08-25T07:31:09.861Z,41.22
2016-08-25T07:32:09.903Z,41.3
2016-08-25T07:33:10.658Z,41.42
2016-08-25T07:34:09.974Z,41.42
2016-08-25T07:35:10.028Z,41.17
2016-08-25T07:36:10.043Z,41.03
2016-08-25T07:37:09.371Z,40.88
2016-08-25T07:38:09.434Z,40.62
2016-08-25T07:39:09.452Z,40.55
2016-08-25T07:40:10.901Z,40.57
2016-08-25T07:41:10.943Z,40.35
2016-08-25T07:42:10.983Z,40.35
2016-08-25T07:43:10.290Z,40.19
2016-08-25T07:44:09.709Z,40.13
2016-08-25T07:45:11.077Z,39.75
2016-08-25T07:46:11.103Z,39.41
2016-08-25T07:47:09.751Z,39.2
2016-08-25T07:48:11.262Z,39.1
2016-08-25T07:49:11.223Z,39.26
2016-08-25T07:50:10.633Z,39.26
2016-08-25T07:51:11.299Z,39.22
2016-08-25T07:52:11.328Z,39.03
2016-08-25T07:53:09.946Z,38.46
2016-08-25T07:54:10.692Z,37.8
2016-08-25T07:55:11.431Z,36.94
2016-08-25T07:56:10.770Z,35.91
2016-08-25T07:57:10.801Z,34.56
2016-08-25T07:58:10.133Z,33.2
2016-08-25T07:59:11.803Z,31.9
2016-08-25T08:00:11.623Z,31.28
2016-08-25T08:01:10.937Z,30.69
2016-08-25T08:02:11.073Z,29.9
2016-08-25T08:03:11.714Z,29.37
2016-08-25T08:04:11.744Z,28.97
2016-08-25T08:05:11.058Z,28.77
2016-08-25T08:06:11.814Z,28.4
2016-08-25T08:07:11.135Z,28.31
2016-08-25T08:08:11.182Z,28.09
2016-08-25T08:09:11.910Z,28.09
2016-08-25T08:10:11.251Z,28.13
2016-08-25T08:11:11.963Z,28.1
2016-08-25T08:12:12.001Z,28.01
2016-08-25T08:13:12.048Z,27.95
2016-08-25T08:14:12.072Z,27.93
2016-08-25T08:15:12.113Z,27.76
2016-08-25T08:16:12.112Z,27.79
2016-08-25T08:17:10.775Z,27.67
2016-08-25T08:18:11.481Z,27.71
2016-08-25T08:19:12.274Z,27.63
2016-08-25T08:20:11.545Z,27.64
2016-08-25T08:21:12.277Z,27.63
2016-08-25T08:22:12.313Z,27.71
2016-08-25T08:23:11.624Z,27.76
2016-08-25T08:24:12.506Z,27.68
2016-08-25T08:25:12.393Z,27.67
2016-08-25T08:26:12.473Z,27.68
2016-08-25T08:27:12.456Z,27.83
2016-08-25T08:28:11.772Z,27.78
2016-08-25T08:29:12.522Z,27.68
2016-08-25T08:30:12.553Z,27.67
2016-08-25T08:31:12.570Z,27.73
2016-08-25T08:32:11.901Z,27.64
2016-08-25T08:33:11.984Z,27.64
2016-08-25T08:34:11.965Z,27.64
2016-08-25T08:35:12.054Z,27.71
2016-08-25T08:36:11.300Z,27.66
2016-08-25T08:37:12.078Z,27.79
2016-08-25T08:38:12.086Z,27.86
2016-08-25T08:39:12.796Z,27.75
2016-08-25T08:40:12.126Z,27.82
2016-08-25T08:41:11.443Z,27.81
2016-08-25T08:42:12.172Z,27.81
2016-08-25T08:43:12.943Z,27.78
2016-08-25T08:44:12.953Z,27.91
2016-08-25T08:45:12.279Z,27.91
2016-08-25T08:46:13.030Z,27.9
2016-08-25T08:47:12.313Z,27.93
2016-08-25T08:48:13.074Z,27.91
2016-08-25T08:49:12.383Z,27.88
2016-08-25T08:50:11.713Z,27.95
2016-08-25T08:51:13.143Z,27.97
2016-08-25T08:52:12.474Z,28.01
2016-08-25T08:53:12.503Z,28.08
2016-08-25T08:54:12.611Z,28.08
2016-08-25T08:55:12.560Z,28.12
2016-08-25T08:56:12.589Z,28.19
2016-08-25T08:57:12.700Z,28.18
2016-08-25T08:58:12.636Z,28.33
2016-08-25T08:59:12.660Z,28.3
2016-08-25T09:00:13.412Z,28.35
2016-08-25T09:01:12.736Z,28.4
2016-08-25T09:02:12.756Z,28.45
2016-08-25T09:03:12.781Z,28.64
2016-08-25T09:04:12.894Z,28.72
2016-08-25T09:05:13.559Z,28.75
2016-08-25T09:06:12.163Z,28.8
2016-08-25T09:07:12.908Z,28.83
2016-08-25T09:08:13.632Z,28.84
2016-08-25T09:09:12.952Z,28.9
2016-08-25T09:10:12.985Z,28.9
2016-08-25T09:11:12.313Z,28.97
2016-08-25T09:12:13.035Z,29.09
2016-08-25T09:13:13.786Z,29.12
2016-08-25T09:14:14.025Z,29.13
2016-08-25T09:15:13.136Z,29.21
2016-08-25T09:16:13.163Z,29.18
2016-08-25T09:17:14.024Z,29.3
2016-08-25T09:18:14.035Z,29.31
2016-08-25T09:19:13.265Z,29.42
2016-08-25T09:20:14.035Z,29.44
2016-08-25T09:21:13.302Z,29.43
2016-08-25T09:22:13.363Z,29.4
2016-08-25T09:23:13.354Z,29.43
2016-08-25T09:24:14.105Z,29.42
2016-08-25T09:25:14.114Z,29.5
2016-08-25T09:26:13.547Z,29.58
2016-08-25T09:27:14.218Z,29.58
2016-08-25T09:28:14.246Z,29.52
2016-08-25T09:29:13.526Z,29.55
2016-08-25T09:30:13.571Z,29.61
2016-08-25T09:31:13.602Z,29.58
2016-08-25T09:32:13.633Z,29.65
2016-08-25T09:33:13.744Z,29.61
2016-08-25T09:34:14.383Z,29.61
2016-08-25T09:35:14.524Z,29.69
2016-08-25T09:36:14.595Z,29.58
2016-08-25T09:37:14.494Z,29.61
2016-08-25T09:38:14.502Z,29.61
2016-08-25T09:39:13.873Z,29.69
2016-08-25T09:40:14.562Z,29.73
2016-08-25T09:41:13.878Z,29.81
2016-08-25T09:42:13.931Z,29.87
2016-08-25T09:43:14.653Z,29.86
2016-08-25T09:44:13.974Z,29.9
2016-08-25T09:45:14.711Z,29.89
2016-08-25T09:46:14.245Z,30.08
2016-08-25T09:47:14.203Z,30.17
2016-08-25T09:48:14.845Z,30.13
2016-08-25T09:49:13.479Z,30.17
2016-08-25T09:50:14.246Z,30.17
2016-08-25T09:51:14.893Z,30.27
2016-08-25T09:52:15.035Z,30.36
2016-08-25T09:53:14.220Z,30.35
2016-08-25T09:54:14.973Z,30.49
2016-08-25T09:55:14.291Z,30.49
2016-08-25T09:56:14.336Z,30.54
2016-08-25T09:57:14.365Z,30.46
2016-08-25T09:58:14.394Z,30.36
2016-08-25T09:59:15.127Z,30.48
2016-08-25T10:00:14.445Z,30.36
2016-08-25T10:01:15.160Z,30.46
2016-08-25T10:02:13.794Z,30.54
2016-08-25T10:03:15.246Z,30.51
2016-08-25T10:04:14.559Z,30.61
2016-08-25T10:05:14.590Z,30.48
2016-08-25T10:06:14.605Z,30.54
2016-08-25T10:07:14.625Z,30.59
2016-08-25T10:08:14.753Z,30.59
2016-08-25T10:09:14.693Z,30.59
2016-08-25T10:10:14.792Z,30.76
2016-08-25T10:11:14.769Z,30.67
2016-08-25T10:12:14.788Z,30.8
2016-08-25T10:13:15.523Z,30.86
2016-08-25T10:14:15.548Z,30.67
2016-08-25T10:15:15.586Z,30.76
2016-08-25T10:16:15.613Z,30.73
2016-08-25T10:17:15.713Z,30.77
2016-08-25T10:18:14.965Z,30.71
2016-08-25T10:19:15.064Z,30.81
2016-08-25T10:20:15.724Z,30.85
2016-08-25T10:21:15.052Z,30.73
2016-08-25T10:22:15.079Z,30.76
2016-08-25T10:23:15.835Z,30.73
2016-08-25T10:24:15.168Z,30.92
2016-08-25T10:25:15.174Z,30.8
2016-08-25T10:26:16.027Z,30.92
2016-08-25T10:27:14.537Z,30.99
2016-08-25T10:28:15.324Z,30.86
2016-08-25T10:29:15.304Z,30.92
2016-08-25T10:30:15.394Z,30.83
2016-08-25T10:31:16.052Z,30.91
2016-08-25T10:32:15.384Z,30.99
2016-08-25T10:33:16.145Z,30.89
2016-08-25T10:34:14.745Z,30.91
2016-08-25T10:35:16.184Z,31.02
2016-08-25T10:36:15.484Z,30.98
2016-08-25T10:37:14.912Z,30.99
2016-08-25T10:38:15.551Z,31.02
2016-08-25T10:39:15.685Z,31.13
2016-08-25T10:40:16.342Z,31.13
2016-08-25T10:41:14.945Z,31.1
2016-08-25T10:42:16.383Z,31.14
2016-08-25T10:43:16.417Z,31.08
2016-08-25T10:44:16.435Z,30.98
2016-08-25T10:45:15.064Z,31.1
2016-08-25T10:46:15.894Z,31.17
2016-08-25T10:47:16.535Z,31.15
2016-08-25T10:48:16.602Z,31.2
2016-08-25T10:49:15.896Z,31.18
2016-08-25T10:50:15.304Z,31.2
2016-08-25T10:51:15.243Z,31.26
2016-08-25T10:52:16.737Z,31.33
2016-08-25T10:53:16.025Z,31.36
2016-08-25T10:54:16.797Z,31.35
2016-08-25T10:55:16.875Z,31.39
2016-08-25T10:56:15.464Z,31.36
2016-08-25T10:57:16.879Z,31.47
2016-08-25T10:58:16.873Z,31.42
2016-08-25T10:59:16.294Z,31.48
2016-08-25T11:00:16.202Z,31.47
2016-08-25T11:01:16.251Z,31.5
2016-08-25T11:02:16.994Z,31.52
2016-08-25T11:03:17.037Z,31.48
2016-08-25T11:04:16.349Z,31.51
2016-08-25T11:05:17.075Z,31.59
2016-08-25T11:06:16.412Z,31.57
2016-08-25T11:07:17.131Z,31.66
2016-08-25T11:08:17.213Z,31.64
2016-08-25T11:09:16.486Z,31.66
2016-08-25T11:10:16.525Z,31.63
2016-08-25T11:11:17.250Z,31.72
2016-08-25T11:12:17.296Z,31.77
2016-08-25T11:13:17.318Z,31.78
2016-08-25T11:14:17.344Z,31.74
2016-08-25T11:15:17.780Z,31.7
2016-08-25T11:16:16.693Z,31.78
2016-08-25T11:17:16.736Z,31.85
2016-08-25T11:18:16.054Z,31.97
2016-08-25T11:19:17.105Z,31.93
2016-08-25T11:20:16.824Z,31.95
2016-08-25T11:21:16.836Z,31.98
2016-08-25T11:22:16.878Z,32
2016-08-25T11:23:17.762Z,31.95
2016-08-25T11:24:17.641Z,31.93
2016-08-25T11:25:17.765Z,31.89
2016-08-25T11:26:17.104Z,31.86
2016-08-25T11:27:17.782Z,31.86
2016-08-25T11:28:17.764Z,31.85
2016-08-25T11:29:17.789Z,31.92
2016-08-25T11:30:17.901Z,32.07
2016-08-25T11:31:17.864Z,31.93
2016-08-25T11:32:17.898Z,32.01
2016-08-25T11:33:17.907Z,31.95
2016-08-25T11:34:17.241Z,32.02
2016-08-25T11:35:17.352Z,32.04
2016-08-25T11:36:17.302Z,32.01
2016-08-25T11:37:17.336Z,31.97
2016-08-25T11:38:17.361Z,31.98
2016-08-25T11:39:16.693Z,31.97
2016-08-25T11:40:17.422Z,32
2016-08-25T11:41:18.163Z,32
2016-08-25T11:42:17.583Z,32
2016-08-25T11:43:17.591Z,32.07
2016-08-25T11:44:17.550Z,32.02
2016-08-25T11:45:17.673Z,32.08
2016-08-25T11:46:17.689Z,32.11
2016-08-25T11:47:17.183Z,32.08
2016-08-25T11:48:18.381Z,32.02
2016-08-25T11:49:18.402Z,32
2016-08-25T11:50:17.775Z,32
2016-08-25T11:51:17.744Z,32.09
2016-08-25T11:52:17.771Z,32.08
2016-08-25T11:53:17.254Z,32.09
2016-08-25T11:54:17.851Z,32.17
2016-08-25T11:55:17.892Z,32.12
2016-08-25T11:56:17.187Z,32.08
2016-08-25T11:57:17.991Z,32.07
2016-08-25T11:58:17.953Z,31.97
2016-08-25T11:59:18.699Z,32.09
2016-08-25T12:00:18.013Z,32.09
2016-08-25T12:01:18.061Z,32.09
2016-08-25T12:02:17.422Z,32.05
2016-08-25T12:03:18.815Z,32.12
2016-08-25T12:04:18.885Z,32.11
2016-08-25T12:05:18.183Z,32.12
2016-08-25T12:06:18.223Z,32.17
2016-08-25T12:07:18.239Z,32.17
2016-08-25T12:08:19.023Z,32.12
2016-08-25T12:09:18.299Z,32.12
2016-08-25T12:10:19.134Z,32.11
2016-08-25T12:11:18.362Z,32.07
2016-08-25T12:12:18.382Z,32.08
2016-08-25T12:13:19.113Z,32.08
2016-08-25T12:14:18.443Z,32.07
2016-08-25T12:15:18.522Z,32.11
2016-08-25T12:16:18.522Z,32.11
2016-08-25T12:17:19.274Z,32.24
2016-08-25T12:18:19.283Z,32.27
2016-08-25T12:19:19.421Z,32.24
2016-08-25T12:20:18.644Z,32.29
2016-08-25T12:21:18.663Z,32.22
2016-08-25T12:22:19.394Z,32.24
2016-08-25T12:23:19.436Z,32.19
2016-08-25T12:24:19.474Z,32.2
2016-08-25T12:25:19.493Z,32.22
2016-08-25T12:26:19.532Z,32.17
2016-08-25T12:27:19.546Z,32.27
2016-08-25T12:28:19.580Z,32.23
2016-08-25T12:29:18.909Z,32.09
2016-08-25T12:30:19.712Z,32.07
2016-08-25T12:31:19.685Z,32.16
2016-08-25T12:32:18.989Z,32.17
2016-08-25T12:33:19.749Z,32.11
2016-08-25T12:34:18.471Z,32.26
2016-08-25T12:35:19.893Z,32.22
2016-08-25T12:36:19.830Z,32.09
2016-08-25T12:37:18.435Z,32.24
2016-08-25T12:38:19.182Z,32.26
2016-08-25T12:39:19.972Z,32.19
2016-08-25T12:40:19.937Z,32.12
2016-08-25T12:41:20.011Z,32.08
2016-08-25T12:42:20.025Z,32.12
2016-08-25T12:43:19.350Z,32.19
2016-08-25T12:44:19.502Z,32.22
2016-08-25T12:45:20.106Z,32.31
2016-08-25T12:46:19.443Z,32.31
2016-08-25T12:47:19.466Z,32.3
2016-08-25T12:48:20.223Z,32.34
2016-08-25T12:49:20.238Z,32.17
2016-08-25T12:50:19.575Z,32.27
2016-08-25T12:51:20.295Z,32.31
2016-08-25T12:52:20.316Z,32.27
2016-08-25T12:53:19.677Z,32.3
2016-08-25T12:54:19.677Z,32.2
2016-08-25T12:55:19.792Z,32.26
2016-08-25T12:56:19.740Z,32.2